sensor_id;sensor_type;location;lat;lon;timestamp;P1;durP1;ratioP1;P2;durP2;ratioP2
10162;SDS011;5123;52.556;13.384;2024-02-21T00:02:26;19.37;;;7.00;;
10162;SDS011;5123;52.556;13.384;2024-02-21T00:04:58;13.20;;;6.47;;
10162;SDS011;5123;52.556;13.384;2024-02-21T00:07:31;19.87;;;7.33;;
10162;SDS011;5123;52.556;13.384;2024-02-21T00:10:05;15.77;;;7.37;;
10162;SDS011;5123;52.556;13.384;2024-02-21T00:12:38;19.10;;;7.30;;
10162;SDS011;5123;52.556;13.384;2024-02-21T00:15:12;17.93;;;7.33;;
10162;SDS011;5123;52.556;13.384;2024-02-21T00:17:45;14.57;;;6.33;;
10162;SDS011;5123;52.556;13.384;2024-02-21T00:20:18;18.00;;;6.87;;
10162;SDS011;5123;52.556;13.384;2024-02-21T00:22:51;20.30;;;6.63;;
10162;SDS011;5123;52.556;13.384;2024-02-21T00:25:24;14.83;;;6.40;;
10162;SDS011;5123;52.556;13.384;2024-02-21T00:27:57;14.87;;;5.93;;
10162;SDS011;5123;52.556;13.384;2024-02-21T00:30:31;13.10;;;6.40;;
10162;SDS011;5123;52.556;13.384;2024-02-21T00:33:04;12.23;;;5.80;;
10162;SDS011;5123;52.556;13.384;2024-02-21T00:35:37;19.60;;;6.40;;
10162;SDS011;5123;52.556;13.384;2024-02-21T00:38:10;15.00;;;6.70;;
10162;SDS011;5123;52.556;13.384;2024-02-21T00:40:42;17.37;;;6.10;;
10162;SDS011;5123;52.556;13.384;2024-02-21T00:43:15;16.73;;;6.00;;
10162;SDS011;5123;52.556;13.384;2024-02-21T00:45:49;14.20;;;6.03;;
10162;SDS011;5123;52.556;13.384;2024-02-21T00:48:22;13.63;;;5.50;;
10162;SDS011;5123;52.556;13.384;2024-02-21T00:50:55;16.47;;;7.03;;
10162;SDS011;5123;52.556;13.384;2024-02-21T00:53:28;18.43;;;6.37;;
10162;SDS011;5123;52.556;13.384;2024-02-21T00:56:01;15.63;;;5.77;;
10162;SDS011;5123;52.556;13.384;2024-02-21T00:58:34;16.10;;;5.73;;
10162;SDS011;5123;52.556;13.384;2024-02-21T01:01:08;14.53;;;5.87;;
10162;SDS011;5123;52.556;13.384;2024-02-21T01:03:41;15.37;;;5.77;;
10162;SDS011;5123;52.556;13.384;2024-02-21T01:06:15;9.87;;;5.33;;
10162;SDS011;5123;52.556;13.384;2024-02-21T01:08:47;10.87;;;5.53;;
10162;SDS011;5123;52.556;13.384;2024-02-21T01:11:20;14.67;;;6.23;;
10162;SDS011;5123;52.556;13.384;2024-02-21T01:13:53;13.67;;;5.50;;
10162;SDS011;5123;52.556;13.384;2024-02-21T01:16:29;14.43;;;6.23;;
10162;SDS011;5123;52.556;13.384;2024-02-21T01:19:01;12.67;;;5.73;;
10162;SDS011;5123;52.556;13.384;2024-02-21T01:21:34;11.63;;;5.87;;
10162;SDS011;5123;52.556;13.384;2024-02-21T01:24:07;18.70;;;6.07;;
10162;SDS011;5123;52.556;13.384;2024-02-21T01:26:41;15.53;;;5.87;;
10162;SDS011;5123;52.556;13.384;2024-02-21T01:29:13;17.07;;;5.90;;
10162;SDS011;5123;52.556;13.384;2024-02-21T01:31:48;15.63;;;5.47;;
10162;SDS011;5123;52.556;13.384;2024-02-21T01:34:21;11.77;;;5.17;;
10162;SDS011;5123;52.556;13.384;2024-02-21T01:36:54;13.80;;;5.10;;
10162;SDS011;5123;52.556;13.384;2024-02-21T01:39:26;17.47;;;5.57;;
10162;SDS011;5123;52.556;13.384;2024-02-21T01:41:59;13.27;;;5.73;;
10162;SDS011;5123;52.556;13.384;2024-02-21T01:44:32;11.20;;;4.60;;
10162;SDS011;5123;52.556;13.384;2024-02-21T01:47:06;12.70;;;5.23;;
10162;SDS011;5123;52.556;13.384;2024-02-21T01:49:39;12.70;;;5.50;;
10162;SDS011;5123;52.556;13.384;2024-02-21T01:52:14;16.30;;;6.30;;
10162;SDS011;5123;52.556;13.384;2024-02-21T01:54:47;11.93;;;5.83;;
10162;SDS011;5123;52.556;13.384;2024-02-21T01:57:20;13.07;;;5.73;;
10162;SDS011;5123;52.556;13.384;2024-02-21T01:59:53;14.33;;;5.13;;
10162;SDS011;5123;52.556;13.384;2024-02-21T02:02:27;17.07;;;6.33;;
10162;SDS011;5123;52.556;13.384;2024-02-21T02:04:59;16.67;;;6.17;;
10162;SDS011;5123;52.556;13.384;2024-02-21T02:07:33;14.50;;;4.97;;
10162;SDS011;5123;52.556;13.384;2024-02-21T02:10:06;16.70;;;5.27;;
10162;SDS011;5123;52.556;13.384;2024-02-21T02:12:41;11.60;;;5.07;;
10162;SDS011;5123;52.556;13.384;2024-02-21T02:15:14;13.77;;;5.87;;
10162;SDS011;5123;52.556;13.384;2024-02-21T02:17:48;14.17;;;5.80;;
10162;SDS011;5123;52.556;13.384;2024-02-21T02:20:21;15.70;;;5.43;;
10162;SDS011;5123;52.556;13.384;2024-02-21T02:22:54;14.70;;;5.67;;
10162;SDS011;5123;52.556;13.384;2024-02-21T02:28:53;16.63;;;5.63;;
10162;SDS011;5123;52.556;13.384;2024-02-21T02:31:26;9.40;;;4.93;;
10162;SDS011;5123;52.556;13.384;2024-02-21T02:34:00;16.53;;;5.63;;
10162;SDS011;5123;52.556;13.384;2024-02-21T02:36:33;7.47;;;4.63;;
10162;SDS011;5123;52.556;13.384;2024-02-21T02:39:06;10.57;;;5.77;;
10162;SDS011;5123;52.556;13.384;2024-02-21T02:41:39;12.70;;;5.50;;
10162;SDS011;5123;52.556;13.384;2024-02-21T02:44:14;13.17;;;5.40;;
10162;SDS011;5123;52.556;13.384;2024-02-21T02:46:47;13.27;;;5.27;;
10162;SDS011;5123;52.556;13.384;2024-02-21T02:49:20;7.70;;;4.77;;
10162;SDS011;5123;52.556;13.384;2024-02-21T02:51:54;16.33;;;5.83;;
10162;SDS011;5123;52.556;13.384;2024-02-21T02:54:26;12.97;;;5.43;;
10162;SDS011;5123;52.556;13.384;2024-02-21T02:56:59;14.40;;;6.17;;
10162;SDS011;5123;52.556;13.384;2024-02-21T02:59:33;20.27;;;6.90;;
10162;SDS011;5123;52.556;13.384;2024-02-21T03:02:08;13.97;;;5.00;;
10162;SDS011;5123;52.556;13.384;2024-02-21T03:04:41;14.83;;;5.77;;
10162;SDS011;5123;52.556;13.384;2024-02-21T03:07:14;13.37;;;5.43;;
10162;SDS011;5123;52.556;13.384;2024-02-21T03:09:47;14.53;;;5.87;;
10162;SDS011;5123;52.556;13.384;2024-02-21T03:12:23;16.27;;;6.50;;
10162;SDS011;5123;52.556;13.384;2024-02-21T03:15:00;16.87;;;6.57;;
10162;SDS011;5123;52.556;13.384;2024-02-21T03:17:33;13.40;;;5.67;;
10162;SDS011;5123;52.556;13.384;2024-02-21T03:20:07;7.40;;;4.83;;
10162;SDS011;5123;52.556;13.384;2024-02-21T03:22:43;15.63;;;6.67;;
10162;SDS011;5123;52.556;13.384;2024-02-21T03:25:16;13.40;;;6.47;;
10162;SDS011;5123;52.556;13.384;2024-02-21T03:27:51;11.80;;;5.73;;
10162;SDS011;5123;52.556;13.384;2024-02-21T03:30:25;13.53;;;6.43;;
10162;SDS011;5123;52.556;13.384;2024-02-21T03:32:58;13.80;;;6.03;;
10162;SDS011;5123;52.556;13.384;2024-02-21T03:35:32;14.63;;;6.47;;
10162;SDS011;5123;52.556;13.384;2024-02-21T03:38:05;13.90;;;6.33;;
10162;SDS011;5123;52.556;13.384;2024-02-21T03:40:38;14.93;;;7.03;;
10162;SDS011;5123;52.556;13.384;2024-02-21T03:43:12;10.07;;;6.17;;
10162;SDS011;5123;52.556;13.384;2024-02-21T03:45:46;13.60;;;6.10;;
10162;SDS011;5123;52.556;13.384;2024-02-21T03:48:19;17.37;;;7.37;;
10162;SDS011;5123;52.556;13.384;2024-02-21T03:50:52;17.80;;;7.03;;
10162;SDS011;5123;52.556;13.384;2024-02-21T03:53:25;14.57;;;7.70;;
10162;SDS011;5123;52.556;13.384;2024-02-21T03:56:00;15.80;;;6.80;;
10162;SDS011;5123;52.556;13.384;2024-02-21T03:58:35;19.37;;;7.70;;
10162;SDS011;5123;52.556;13.384;2024-02-21T04:01:09;16.20;;;7.90;;
10162;SDS011;5123;52.556;13.384;2024-02-21T04:03:42;15.10;;;7.43;;
10162;SDS011;5123;52.556;13.384;2024-02-21T04:06:15;16.00;;;7.67;;
10162;SDS011;5123;52.556;13.384;2024-02-21T04:08:48;16.13;;;7.50;;
10162;SDS011;5123;52.556;13.384;2024-02-21T04:11:20;13.27;;;6.60;;
10162;SDS011;5123;52.556;13.384;2024-02-21T04:13:53;18.90;;;7.40;;
10162;SDS011;5123;52.556;13.384;2024-02-21T04:16:28;20.27;;;7.50;;
10162;SDS011;5123;52.556;13.384;2024-02-21T04:19:00;16.83;;;7.23;;
10162;SDS011;5123;52.556;13.384;2024-02-21T04:21:34;15.67;;;7.13;;
10162;SDS011;5123;52.556;13.384;2024-02-21T04:24:08;19.33;;;8.23;;
10162;SDS011;5123;52.556;13.384;2024-02-21T04:26:40;17.43;;;7.60;;
10162;SDS011;5123;52.556;13.384;2024-02-21T04:29:15;10.87;;;6.50;;
10162;SDS011;5123;52.556;13.384;2024-02-21T04:31:49;16.63;;;7.80;;
10162;SDS011;5123;52.556;13.384;2024-02-21T04:34:23;15.77;;;7.73;;
10162;SDS011;5123;52.556;13.384;2024-02-21T04:36:56;15.87;;;7.87;;
10162;SDS011;5123;52.556;13.384;2024-02-21T04:39:29;13.03;;;8.00;;
10162;SDS011;5123;52.556;13.384;2024-02-21T04:42:02;19.77;;;8.03;;
10162;SDS011;5123;52.556;13.384;2024-02-21T04:44:36;16.83;;;7.50;;
10162;SDS011;5123;52.556;13.384;2024-02-21T04:47:10;14.17;;;7.73;;
10162;SDS011;5123;52.556;13.384;2024-02-21T04:49:43;16.43;;;7.73;;
10162;SDS011;5123;52.556;13.384;2024-02-21T04:52:17;20.47;;;7.93;;
10162;SDS011;5123;52.556;13.384;2024-02-21T04:54:53;14.00;;;7.37;;
10162;SDS011;5123;52.556;13.384;2024-02-21T04:57:26;18.47;;;7.30;;
10162;SDS011;5123;52.556;13.384;2024-02-21T05:00:01;19.97;;;7.90;;
10162;SDS011;5123;52.556;13.384;2024-02-21T05:02:36;13.37;;;6.53;;
10162;SDS011;5123;52.556;13.384;2024-02-21T05:05:09;11.90;;;7.50;;
10162;SDS011;5123;52.556;13.384;2024-02-21T05:07:42;14.07;;;7.70;;
10162;SDS011;5123;52.556;13.384;2024-02-21T05:10:15;12.03;;;6.90;;
10162;SDS011;5123;52.556;13.384;2024-02-21T05:12:52;20.33;;;8.00;;
10162;SDS011;5123;52.556;13.384;2024-02-21T05:15:25;21.70;;;8.33;;
10162;SDS011;5123;52.556;13.384;2024-02-21T05:17:59;13.93;;;7.67;;
10162;SDS011;5123;52.556;13.384;2024-02-21T05:20:33;16.80;;;8.80;;
10162;SDS011;5123;52.556;13.384;2024-02-21T05:23:06;19.80;;;7.63;;
10162;SDS011;5123;52.556;13.384;2024-02-21T05:25:39;13.43;;;7.67;;
10162;SDS011;5123;52.556;13.384;2024-02-21T05:28:12;17.60;;;8.93;;
10162;SDS011;5123;52.556;13.384;2024-02-21T05:30:45;14.77;;;8.33;;
10162;SDS011;5123;52.556;13.384;2024-02-21T05:33:19;16.10;;;8.43;;
10162;SDS011;5123;52.556;13.384;2024-02-21T05:35:54;19.17;;;8.63;;
10162;SDS011;5123;52.556;13.384;2024-02-21T05:38:26;18.23;;;8.77;;
10162;SDS011;5123;52.556;13.384;2024-02-21T05:41:00;23.70;;;9.70;;
10162;SDS011;5123;52.556;13.384;2024-02-21T05:43:32;15.40;;;7.60;;
10162;SDS011;5123;52.556;13.384;2024-02-21T05:46:06;17.60;;;8.53;;
10162;SDS011;5123;52.556;13.384;2024-02-21T05:48:41;13.83;;;7.93;;
10162;SDS011;5123;52.556;13.384;2024-02-21T05:51:14;13.80;;;8.93;;
10162;SDS011;5123;52.556;13.384;2024-02-21T05:53:47;19.57;;;8.03;;
10162;SDS011;5123;52.556;13.384;2024-02-21T05:56:22;20.37;;;8.30;;
10162;SDS011;5123;52.556;13.384;2024-02-21T05:58:56;15.30;;;7.63;;
10162;SDS011;5123;52.556;13.384;2024-02-21T06:01:38;17.87;;;8.93;;
10162;SDS011;5123;52.556;13.384;2024-02-21T06:04:12;16.97;;;9.23;;
10162;SDS011;5123;52.556;13.384;2024-02-21T06:06:45;18.77;;;8.40;;
10162;SDS011;5123;52.556;13.384;2024-02-21T06:09:18;13.63;;;8.20;;
10162;SDS011;5123;52.556;13.384;2024-02-21T06:11:51;15.17;;;7.70;;
10162;SDS011;5123;52.556;13.384;2024-02-21T06:14:24;17.50;;;8.53;;
10162;SDS011;5123;52.556;13.384;2024-02-21T06:16:59;14.43;;;8.60;;
10162;SDS011;5123;52.556;13.384;2024-02-21T06:19:35;20.73;;;9.10;;
10162;SDS011;5123;52.556;13.384;2024-02-21T06:22:10;18.50;;;8.63;;
10162;SDS011;5123;52.556;13.384;2024-02-21T06:24:47;14.90;;;8.37;;
10162;SDS011;5123;52.556;13.384;2024-02-21T06:27:22;18.33;;;9.20;;
10162;SDS011;5123;52.556;13.384;2024-02-21T06:29:56;17.33;;;8.93;;
10162;SDS011;5123;52.556;13.384;2024-02-21T06:32:29;20.97;;;9.27;;
10162;SDS011;5123;52.556;13.384;2024-02-21T06:35:04;15.43;;;8.47;;
10162;SDS011;5123;52.556;13.384;2024-02-21T06:37:37;19.07;;;8.67;;
10162;SDS011;5123;52.556;13.384;2024-02-21T06:40:11;17.77;;;8.67;;
10162;SDS011;5123;52.556;13.384;2024-02-21T06:42:44;13.07;;;8.80;;
10162;SDS011;5123;52.556;13.384;2024-02-21T06:45:17;17.97;;;8.60;;
10162;SDS011;5123;52.556;13.384;2024-02-21T06:47:51;16.33;;;8.70;;
10162;SDS011;5123;52.556;13.384;2024-02-21T06:50:25;16.07;;;9.13;;
10162;SDS011;5123;52.556;13.384;2024-02-21T06:52:59;14.77;;;9.47;;
10162;SDS011;5123;52.556;13.384;2024-02-21T06:55:32;17.87;;;8.90;;
10162;SDS011;5123;52.556;13.384;2024-02-21T06:58:05;17.10;;;9.10;;
10162;SDS011;5123;52.556;13.384;2024-02-21T07:00:43;17.40;;;9.60;;
10162;SDS011;5123;52.556;13.384;2024-02-21T07:03:17;22.10;;;9.80;;
10162;SDS011;5123;52.556;13.384;2024-02-21T07:05:51;19.50;;;10.23;;
10162;SDS011;5123;52.556;13.384;2024-02-21T07:08:25;16.33;;;9.13;;
10162;SDS011;5123;52.556;13.384;2024-02-21T07:11:01;17.90;;;8.97;;
10162;SDS011;5123;52.556;13.384;2024-02-21T07:13:35;16.63;;;9.40;;
10162;SDS011;5123;52.556;13.384;2024-02-21T07:16:08;17.93;;;9.40;;
10162;SDS011;5123;52.556;13.384;2024-02-21T07:18:42;15.23;;;9.27;;
10162;SDS011;5123;52.556;13.384;2024-02-21T07:21:17;17.43;;;10.20;;
10162;SDS011;5123;52.556;13.384;2024-02-21T07:23:50;20.43;;;9.27;;
10162;SDS011;5123;52.556;13.384;2024-02-21T07:26:36;15.23;;;8.83;;
10162;SDS011;5123;52.556;13.384;2024-02-21T07:29:08;15.10;;;10.07;;
10162;SDS011;5123;52.556;13.384;2024-02-21T07:31:41;14.03;;;8.93;;
10162;SDS011;5123;52.556;13.384;2024-02-21T07:34:14;16.10;;;9.00;;
10162;SDS011;5123;52.556;13.384;2024-02-21T07:36:49;20.17;;;9.33;;
10162;SDS011;5123;52.556;13.384;2024-02-21T07:39:22;13.77;;;8.87;;
10162;SDS011;5123;52.556;13.384;2024-02-21T07:41:55;15.90;;;8.37;;
10162;SDS011;5123;52.556;13.384;2024-02-21T07:44:31;14.43;;;8.33;;
10162;SDS011;5123;52.556;13.384;2024-02-21T07:47:05;15.13;;;8.63;;
10162;SDS011;5123;52.556;13.384;2024-02-21T07:49:43;16.17;;;8.97;;
10162;SDS011;5123;52.556;13.384;2024-02-21T07:52:18;17.80;;;8.20;;
10162;SDS011;5123;52.556;13.384;2024-02-21T07:54:53;15.23;;;8.67;;
10162;SDS011;5123;52.556;13.384;2024-02-21T07:57:26;14.40;;;7.93;;
10162;SDS011;5123;52.556;13.384;2024-02-21T07:59:59;14.80;;;8.07;;
10162;SDS011;5123;52.556;13.384;2024-02-21T08:02:34;13.23;;;6.50;;
10162;SDS011;5123;52.556;13.384;2024-02-21T08:05:07;15.63;;;7.20;;
10162;SDS011;5123;52.556;13.384;2024-02-21T08:07:45;15.53;;;7.73;;
10162;SDS011;5123;52.556;13.384;2024-02-21T08:10:19;15.63;;;8.77;;
10162;SDS011;5123;52.556;13.384;2024-02-21T08:12:52;15.53;;;7.70;;
10162;SDS011;5123;52.556;13.384;2024-02-21T08:15:25;17.23;;;8.47;;
10162;SDS011;5123;52.556;13.384;2024-02-21T08:18:01;14.57;;;7.97;;
10162;SDS011;5123;52.556;13.384;2024-02-21T08:20:35;20.57;;;8.33;;
10162;SDS011;5123;52.556;13.384;2024-02-21T08:23:09;14.83;;;8.40;;
10162;SDS011;5123;52.556;13.384;2024-02-21T08:25:42;11.00;;;7.47;;
10162;SDS011;5123;52.556;13.384;2024-02-21T08:28:15;13.83;;;7.53;;
10162;SDS011;5123;52.556;13.384;2024-02-21T08:30:49;14.50;;;8.03;;
10162;SDS011;5123;52.556;13.384;2024-02-21T08:33:22;14.73;;;8.53;;
10162;SDS011;5123;52.556;13.384;2024-02-21T08:35:57;16.03;;;7.27;;
10162;SDS011;5123;52.556;13.384;2024-02-21T08:38:34;14.83;;;7.97;;
10162;SDS011;5123;52.556;13.384;2024-02-21T08:41:12;15.40;;;7.90;;
10162;SDS011;5123;52.556;13.384;2024-02-21T08:43:48;17.87;;;8.73;;
10162;SDS011;5123;52.556;13.384;2024-02-21T08:46:26;17.40;;;8.37;;
10162;SDS011;5123;52.556;13.384;2024-02-21T08:48:59;12.63;;;9.23;;
10162;SDS011;5123;52.556;13.384;2024-02-21T08:51:33;14.07;;;9.03;;
10162;SDS011;5123;52.556;13.384;2024-02-21T08:54:08;16.67;;;8.70;;
10162;SDS011;5123;52.556;13.384;2024-02-21T08:56:41;14.73;;;8.63;;
10162;SDS011;5123;52.556;13.384;2024-02-21T08:59:14;15.30;;;7.57;;
10162;SDS011;5123;52.556;13.384;2024-02-21T09:01:50;16.93;;;8.13;;
10162;SDS011;5123;52.556;13.384;2024-02-21T09:04:24;15.93;;;9.17;;
10162;SDS011;5123;52.556;13.384;2024-02-21T09:06:57;15.57;;;9.43;;
10162;SDS011;5123;52.556;13.384;2024-02-21T09:09:36;12.80;;;9.27;;
10162;SDS011;5123;52.556;13.384;2024-02-21T09:12:15;16.87;;;9.10;;
10162;SDS011;5123;52.556;13.384;2024-02-21T09:14:48;15.20;;;9.67;;
10162;SDS011;5123;52.556;13.384;2024-02-21T09:17:22;14.90;;;9.47;;
10162;SDS011;5123;52.556;13.384;2024-02-21T09:19:57;16.87;;;9.77;;
10162;SDS011;5123;52.556;13.384;2024-02-21T09:22:32;13.93;;;8.63;;
10162;SDS011;5123;52.556;13.384;2024-02-21T09:25:10;13.17;;;8.67;;
10162;SDS011;5123;52.556;13.384;2024-02-21T09:27:44;14.37;;;9.33;;
10162;SDS011;5123;52.556;13.384;2024-02-21T09:30:18;12.33;;;8.53;;
10162;SDS011;5123;52.556;13.384;2024-02-21T09:32:53;18.73;;;10.53;;
10162;SDS011;5123;52.556;13.384;2024-02-21T09:35:29;19.37;;;10.00;;
10162;SDS011;5123;52.556;13.384;2024-02-21T09:38:05;14.80;;;9.17;;
10162;SDS011;5123;52.556;13.384;2024-02-21T09:40:42;19.10;;;10.20;;
10162;SDS011;5123;52.556;13.384;2024-02-21T09:43:21;15.10;;;9.57;;
10162;SDS011;5123;52.556;13.384;2024-02-21T09:45:54;19.07;;;10.03;;
10162;SDS011;5123;52.556;13.384;2024-02-21T09:48:30;16.37;;;9.03;;
10162;SDS011;5123;52.556;13.384;2024-02-21T09:51:07;17.90;;;8.70;;
10162;SDS011;5123;52.556;13.384;2024-02-21T09:54:10;17.47;;;10.20;;
10162;SDS011;5123;52.556;13.384;2024-02-21T10:52:56;10.80;;;8.23;;
10162;SDS011;5123;52.556;13.384;2024-02-21T10:55:46;13.60;;;8.30;;
10162;SDS011;5123;52.556;13.384;2024-02-21T10:58:23;14.10;;;9.57;;
10162;SDS011;5123;52.556;13.384;2024-02-21T11:00:57;18.50;;;9.60;;
10162;SDS011;5123;52.556;13.384;2024-02-21T11:03:33;12.03;;;8.47;;
10162;SDS011;5123;52.556;13.384;2024-02-21T11:06:06;11.10;;;7.70;;
10162;SDS011;5123;52.556;13.384;2024-02-21T11:08:41;11.33;;;8.90;;
10162;SDS011;5123;52.556;13.384;2024-02-21T11:11:14;12.60;;;8.40;;
10162;SDS011;5123;52.556;13.384;2024-02-21T11:14:05;9.60;;;7.60;;
10162;SDS011;5123;52.556;13.384;2024-02-21T11:16:38;15.93;;;8.37;;
10162;SDS011;5123;52.556;13.384;2024-02-21T11:19:18;11.87;;;7.80;;
10162;SDS011;5123;52.556;13.384;2024-02-21T11:21:52;15.43;;;8.63;;
10162;SDS011;5123;52.556;13.384;2024-02-21T11:24:27;12.33;;;8.83;;
10162;SDS011;5123;52.556;13.384;2024-02-21T11:27:11;14.97;;;8.83;;
10162;SDS011;5123;52.556;13.384;2024-02-21T11:29:44;11.10;;;8.17;;
10162;SDS011;5123;52.556;13.384;2024-02-21T11:32:17;10.40;;;7.47;;
10162;SDS011;5123;52.556;13.384;2024-02-21T11:34:53;10.73;;;7.80;;
10162;SDS011;5123;52.556;13.384;2024-02-21T11:37:26;11.67;;;6.60;;
10162;SDS011;5123;52.556;13.384;2024-02-21T11:40:01;11.30;;;6.80;;
10162;SDS011;5123;52.556;13.384;2024-02-21T11:42:35;10.30;;;7.73;;
10162;SDS011;5123;52.556;13.384;2024-02-21T11:45:08;12.57;;;7.67;;
10162;SDS011;5123;52.556;13.384;2024-02-21T11:47:42;13.40;;;7.10;;
10162;SDS011;5123;52.556;13.384;2024-02-21T11:50:15;10.07;;;4.73;;
10162;SDS011;5123;52.556;13.384;2024-02-21T11:52:54;10.50;;;6.30;;
10162;SDS011;5123;52.556;13.384;2024-02-21T11:55:28;6.67;;;5.77;;
10162;SDS011;5123;52.556;13.384;2024-02-21T11:58:01;8.03;;;6.27;;
10162;SDS011;5123;52.556;13.384;2024-02-21T12:00:34;9.70;;;6.93;;
10162;SDS011;5123;52.556;13.384;2024-02-21T12:03:07;9.50;;;6.43;;
10162;SDS011;5123;52.556;13.384;2024-02-21T12:05:41;12.03;;;5.87;;
10162;SDS011;5123;52.556;13.384;2024-02-21T12:08:14;9.90;;;6.40;;
10162;SDS011;5123;52.556;13.384;2024-02-21T12:10:49;7.67;;;5.77;;
10162;SDS011;5123;52.556;13.384;2024-02-21T12:13:23;8.70;;;5.60;;
10162;SDS011;5123;52.556;13.384;2024-02-21T12:15:59;7.93;;;6.30;;
10162;SDS011;5123;52.556;13.384;2024-02-21T12:18:31;6.70;;;5.53;;
10162;SDS011;5123;52.556;13.384;2024-02-21T12:21:06;7.00;;;5.97;;
10162;SDS011;5123;52.556;13.384;2024-02-21T12:23:38;9.60;;;6.20;;
10162;SDS011;5123;52.556;13.384;2024-02-21T12:26:13;9.43;;;6.17;;
10162;SDS011;5123;52.556;13.384;2024-02-21T12:28:46;7.73;;;5.83;;
10162;SDS011;5123;52.556;13.384;2024-02-21T12:31:21;8.27;;;5.93;;
10162;SDS011;5123;52.556;13.384;2024-02-21T12:33:54;10.43;;;5.93;;
10162;SDS011;5123;52.556;13.384;2024-02-21T12:36:28;9.33;;;6.40;;
10162;SDS011;5123;52.556;13.384;2024-02-21T12:39:00;10.00;;;5.90;;
10162;SDS011;5123;52.556;13.384;2024-02-21T12:41:37;7.30;;;5.33;;
10162;SDS011;5123;52.556;13.384;2024-02-21T12:44:12;9.27;;;5.80;;
10162;SDS011;5123;52.556;13.384;2024-02-21T12:46:45;11.70;;;8.53;;
10162;SDS011;5123;52.556;13.384;2024-02-21T12:49:26;10.23;;;6.37;;
10162;SDS011;5123;52.556;13.384;2024-02-21T12:52:01;15.77;;;8.10;;
10162;SDS011;5123;52.556;13.384;2024-02-21T12:54:35;10.83;;;6.10;;
10162;SDS011;5123;52.556;13.384;2024-02-21T12:57:09;8.03;;;5.70;;
10162;SDS011;5123;52.556;13.384;2024-02-21T12:59:44;5.73;;;5.13;;
10162;SDS011;5123;52.556;13.384;2024-02-21T13:02:17;6.93;;;4.37;;
10162;SDS011;5123;52.556;13.384;2024-02-21T13:04:52;6.43;;;5.03;;
10162;SDS011;5123;52.556;13.384;2024-02-21T13:07:25;6.63;;;4.30;;
10162;SDS011;5123;52.556;13.384;2024-02-21T13:09:58;9.27;;;4.87;;
10162;SDS011;5123;52.556;13.384;2024-02-21T13:12:35;6.43;;;4.43;;
10162;SDS011;5123;52.556;13.384;2024-02-21T13:15:08;10.00;;;5.30;;
10162;SDS011;5123;52.556;13.384;2024-02-21T13:17:43;9.63;;;4.87;;
10162;SDS011;5123;52.556;13.384;2024-02-21T13:20:16;7.10;;;4.33;;
10162;SDS011;5123;52.556;13.384;2024-02-21T13:22:49;7.47;;;4.60;;
10162;SDS011;5123;52.556;13.384;2024-02-21T13:25:22;5.93;;;4.47;;
10162;SDS011;5123;52.556;13.384;2024-02-21T13:27:56;4.70;;;4.07;;
10162;SDS011;5123;52.556;13.384;2024-02-21T13:30:29;7.00;;;4.67;;
10162;SDS011;5123;52.556;13.384;2024-02-21T13:33:03;6.70;;;5.03;;
10162;SDS011;5123;52.556;13.384;2024-02-21T13:35:36;8.17;;;5.23;;
10162;SDS011;5123;52.556;13.384;2024-02-21T13:38:11;7.33;;;5.43;;
10162;SDS011;5123;52.556;13.384;2024-02-21T13:40:43;9.80;;;5.53;;
10162;SDS011;5123;52.556;13.384;2024-02-21T13:43:18;7.60;;;4.87;;
10162;SDS011;5123;52.556;13.384;2024-02-21T13:45:55;6.77;;;4.43;;
10162;SDS011;5123;52.556;13.384;2024-02-21T13:48:29;7.77;;;4.73;;
10162;SDS011;5123;52.556;13.384;2024-02-21T13:51:02;14.87;;;7.60;;
10162;SDS011;5123;52.556;13.384;2024-02-21T13:53:34;8.00;;;5.40;;
10162;SDS011;5123;52.556;13.384;2024-02-21T13:56:07;8.90;;;4.80;;
10162;SDS011;5123;52.556;13.384;2024-02-21T13:58:42;10.53;;;5.90;;
10162;SDS011;5123;52.556;13.384;2024-02-21T14:01:15;7.20;;;5.03;;
10162;SDS011;5123;52.556;13.384;2024-02-21T14:03:47;9.43;;;4.67;;
10162;SDS011;5123;52.556;13.384;2024-02-21T14:06:20;6.63;;;4.77;;
10162;SDS011;5123;52.556;13.384;2024-02-21T14:08:54;6.30;;;4.40;;
10162;SDS011;5123;52.556;13.384;2024-02-21T14:11:27;13.57;;;4.73;;
10162;SDS011;5123;52.556;13.384;2024-02-21T14:14:03;6.97;;;4.57;;
10162;SDS011;5123;52.556;13.384;2024-02-21T14:16:39;7.67;;;4.97;;
10162;SDS011;5123;52.556;13.384;2024-02-21T14:19:11;6.20;;;4.73;;
10162;SDS011;5123;52.556;13.384;2024-02-21T14:21:44;7.90;;;4.40;;
10162;SDS011;5123;52.556;13.384;2024-02-21T14:24:17;9.73;;;5.50;;
10162;SDS011;5123;52.556;13.384;2024-02-21T14:26:50;6.37;;;4.93;;
10162;SDS011;5123;52.556;13.384;2024-02-21T14:29:25;9.57;;;5.60;;
10162;SDS011;5123;52.556;13.384;2024-02-21T14:31:58;8.70;;;5.73;;
10162;SDS011;5123;52.556;13.384;2024-02-21T14:34:33;7.40;;;5.60;;
10162;SDS011;5123;52.556;13.384;2024-02-21T14:37:06;8.70;;;4.40;;
10162;SDS011;5123;52.556;13.384;2024-02-21T14:39:39;6.73;;;4.77;;
10162;SDS011;5123;52.556;13.384;2024-02-21T14:42:12;10.00;;;5.50;;
10162;SDS011;5123;52.556;13.384;2024-02-21T14:44:46;7.63;;;4.23;;
10162;SDS011;5123;52.556;13.384;2024-02-21T14:47:18;7.60;;;5.07;;
10162;SDS011;5123;52.556;13.384;2024-02-21T14:49:51;6.77;;;3.97;;
10162;SDS011;5123;52.556;13.384;2024-02-21T14:52:24;5.63;;;4.07;;
10162;SDS011;5123;52.556;13.384;2024-02-21T14:55:01;7.43;;;4.03;;
10162;SDS011;5123;52.556;13.384;2024-02-21T14:57:34;10.43;;;4.13;;
10162;SDS011;5123;52.556;13.384;2024-02-21T15:00:11;8.87;;;3.83;;
10162;SDS011;5123;52.556;13.384;2024-02-21T15:02:44;6.33;;;3.70;;
10162;SDS011;5123;52.556;13.384;2024-02-21T15:05:17;7.77;;;3.70;;
10162;SDS011;5123;52.556;13.384;2024-02-21T15:07:50;6.87;;;3.67;;
10162;SDS011;5123;52.556;13.384;2024-02-21T15:10:23;4.80;;;3.73;;
10162;SDS011;5123;52.556;13.384;2024-02-21T15:12:56;6.33;;;4.50;;
10162;SDS011;5123;52.556;13.384;2024-02-21T15:15:30;9.73;;;4.50;;
10162;SDS011;5123;52.556;13.384;2024-02-21T15:18:03;6.30;;;3.83;;
10162;SDS011;5123;52.556;13.384;2024-02-21T15:20:38;8.17;;;4.03;;
10162;SDS011;5123;52.556;13.384;2024-02-21T15:23:11;4.87;;;3.67;;
10162;SDS011;5123;52.556;13.384;2024-02-21T15:25:47;6.53;;;3.50;;
10162;SDS011;5123;52.556;13.384;2024-02-21T15:28:19;7.90;;;4.17;;
10162;SDS011;5123;52.556;13.384;2024-02-21T15:30:54;7.53;;;3.93;;
10162;SDS011;5123;52.556;13.384;2024-02-21T15:33:26;3.87;;;2.83;;
10162;SDS011;5123;52.556;13.384;2024-02-21T15:36:03;5.53;;;3.63;;
10162;SDS011;5123;52.556;13.384;2024-02-21T15:38:38;9.30;;;3.43;;
10162;SDS011;5123;52.556;13.384;2024-02-21T15:41:14;6.77;;;3.60;;
10162;SDS011;5123;52.556;13.384;2024-02-21T15:43:46;5.07;;;3.57;;
10162;SDS011;5123;52.556;13.384;2024-02-21T15:46:21;5.70;;;3.40;;
10162;SDS011;5123;52.556;13.384;2024-02-21T15:48:53;3.90;;;2.90;;
10162;SDS011;5123;52.556;13.384;2024-02-21T15:51:27;6.70;;;3.70;;
10162;SDS011;5123;52.556;13.384;2024-02-21T15:53:59;7.37;;;4.03;;
10162;SDS011;5123;52.556;13.384;2024-02-21T15:56:32;6.47;;;3.43;;
10162;SDS011;5123;52.556;13.384;2024-02-21T15:59:05;5.77;;;3.23;;
10162;SDS011;5123;52.556;13.384;2024-02-21T16:01:40;6.23;;;3.40;;
10162;SDS011;5123;52.556;13.384;2024-02-21T16:04:14;6.47;;;4.50;;
10162;SDS011;5123;52.556;13.384;2024-02-21T16:06:49;4.87;;;3.93;;
10162;SDS011;5123;52.556;13.384;2024-02-21T16:09:23;7.67;;;4.27;;
10162;SDS011;5123;52.556;13.384;2024-02-21T16:11:56;8.03;;;4.40;;
10162;SDS011;5123;52.556;13.384;2024-02-21T16:14:29;8.10;;;5.00;;
10162;SDS011;5123;52.556;13.384;2024-02-21T16:17:03;13.03;;;8.10;;
10162;SDS011;5123;52.556;13.384;2024-02-21T16:19:36;9.83;;;6.50;;